Terminal Aerodrome Forecast
Issued by NWS

Home | Current Version | Previous Version | Text Only | Print | Product List | Glossary On
Versions: 1 2 3 4 5 6 7 8 9 10 11 12 13 14 15 16 17
730
FTUS43 KICT 142348
TAFHUT
TAF
KHUT 142348Z 1500/1524 21006KT P6SM BKN200
     FM150400 25005KT P6SM BKN100
     FM150600 33009KT P6SM VCSH SCT020 OVC060
     FM150800 01012KT 4SM -SN OVC015
     FM151200 01018G25KT P6SM -SN OVC040=

USA.gov is the U.S. government's official web portal to all federal, state and local government web resources and services.